Copahue, Argentina
Current Conditions -  °F | °C
As of 1:00 AM on Friday 31 Oct 2014 (Local Time) from SACO Reporting Station
Scattered Clouds Scattered Clouds  
Wind Chill: 17°   Ceiling: Unl
Heat Index: 17°   Visibility: 6mi
Dew Point: 13°   Wind: 6mph
Humidity: 77%   Direction: 320°NW
Pressure: 29.91"   Gusts: NA
Location:  31.35°S, 66.17°W
Report Text: SACO 310400Z 32005KT 9999 SCT030 17/13 Q1013
Loading
Personal Weather Stations






























Interactive Weather Map
Tropical Storm Tracking
New forecast layout! Learn more

10-Day Weather Forecast

Advertisements
Track Severe Weather on mobile